Time;durP1;ratioP1;P1;durP2;ratioP2;P2;SDS_P1;SDS_P2;PMS_P1;PMS_P2;Temp;Humidity;BMP_temperature;BMP_pressure;BME280_temperature;BME280_humidity;BME280_pressure;Samples;Min_cycle;Max_cycle;Signal;HPM_P1;HPM_P2
2022/06/14 05:02:54;;;;;;;2.92;1.70;;;;;;;;;;5565676;23;20059;-60
2022/06/14 05:05:32;;;;;;;7.00;2.53;;;;;;;;;;4974774;28;20067;-59
2022/06/14 05:08:23;;;;;;;4.43;2.70;;;;;;;;;;4974739;28;20105;-61
2022/06/14 05:10:49;;;;;;;8.27;2.70;;;;;;;;;;4877464;29;20642;-61
2022/06/14 05:13:18;;;;;;;3.85;2.30;;;;;;;;;;4877452;29;20041;-60
2022/06/14 05:15:57;;;;;;;7.25;1.90;;;;;;;;;;4862102;29;20056;-60
2022/06/14 05:18:40;;;;;;;4.60;2.00;;;;;;;;;;4876886;29;20029;-66
2022/06/14 05:21:10;;;;;;;4.63;1.77;;;;;;;;;;4877271;29;20067;-61
2022/06/14 05:23:42;;;;;;;5.25;2.03;;;;;;;;;;4876970;29;20033;-60
2022/06/14 05:26:11;;;;;;;6.40;2.30;;;;;;;;;;4877259;29;20112;-64
2022/06/14 05:28:47;;;;;;;6.72;2.25;;;;;;;;;;4876596;29;20050;-64
2022/06/14 05:31:16;;;;;;;3.38;1.90;;;;;;;;;;4861119;29;20049;-63
2022/06/14 05:33:42;;;;;;;4.72;2.58;;;;;;;;;;4876638;29;20048;-59
2022/06/14 05:36:11;;;;;;;4.00;1.75;;;;;;;;;;4877141;29;20036;-61
2022/06/14 05:38:46;;;;;;;4.82;1.90;;;;;;;;;;4876900;29;20041;-61
2022/06/14 05:41:15;;;;;;;5.97;1.85;;;;;;;;;;4877218;29;20048;-60
2022/06/14 05:43:42;;;;;;;16.98;3.28;;;;;;;;;;4876953;29;20394;-65
2022/06/14 05:46:10;;;;;;;5.15;2.17;;;;;;;;;;4876830;29;20473;-61
2022/06/14 05:48:45;;;;;;;5.57;2.08;;;;;;;;;;4951018;28;20038;-61
2022/06/14 05:51:12;;;;;;;9.25;3.25;;;;;;;;;;4973965;28;20109;-61
2022/06/14 05:53:43;;;;;;;6.15;2.15;;;;;;;;;;4973316;28;20055;-60
2022/06/14 05:56:19;;;;;;;6.28;2.20;;;;;;;;;;4973043;28;20026;-64
2022/06/14 05:58:45;;;;;;;5.43;2.05;;;;;;;;;;4973705;28;20031;-60
2022/06/14 06:01:17;;;;;;;6.93;2.38;;;;;;;;;;4973771;28;20505;-64
2022/06/14 06:03:43;;;;;;;;;;;;;;;;;;4973702;28;20050;-61
2022/06/14 06:06:11;;;;;;;6.00;2.03;;;;;;;;;;4973859;28;20370;-61
2022/06/14 06:08:43;;;;;;;5.03;1.98;;;;;;;;;;4972281;28;20038;-61
2022/06/14 06:11:13;;;;;;;9.00;2.08;;;;;;;;;;4970057;28;20039;-63
2022/06/14 06:13:47;;;;;;;4.40;1.92;;;;;;;;;;4973388;28;20030;-61
2022/06/14 06:16:17;;;;;;;4.45;1.80;;;;;;;;;;4973666;28;20031;-61
2022/06/14 06:18:49;;;;;;;3.92;2.10;;;;;;;;;;4972292;28;20023;-61
2022/06/14 06:21:15;;;;;;;3.45;1.92;;;;;;;;;;4972941;28;20095;-62
2022/06/14 06:23:44;;;;;;;2.85;1.70;;;;;;;;;;4972843;28;20027;-60
2022/06/14 06:26:11;;;;;;;3.78;2.17;;;;;;;;;;4970724;28;20023;-60
2022/06/14 06:28:40;;;;;;;4.93;2.15;;;;;;;;;;4971606;28;20506;-62
2022/06/14 06:31:06;;;;;;;4.38;2.35;;;;;;;;;;4968878;28;20129;-61
2022/06/14 06:33:36;;;;;;;4.97;2.22;;;;;;;;;;4970157;28;20529;-60
2022/06/14 06:36:06;;;;;;;8.40;3.22;;;;;;;;;;4971511;28;20421;-64
2022/06/14 06:38:35;;;;;;;7.13;4.03;;;;;;;;;;4972006;28;20100;-64
2022/06/14 06:42:08;;;;;;;6.68;2.25;;;;;;;;;;4970717;28;20454;-63
2022/06/14 06:44:06;;;;;;;5.90;2.42;;;;;;;;;;4953916;28;20053;-62
2022/06/14 06:46:39;;;;;;;5.25;2.30;;;;;;;;;;4971033;28;20019;-63
2022/06/14 06:49:08;;;;;;;15.10;3.45;;;;;;;;;;4969736;28;20501;-64
2022/06/14 06:51:48;;;;;;;14.02;4.03;;;;;;;;;;4971863;28;20070;-64
2022/06/14 06:54:35;;;;;;;7.95;2.58;;;;;;;;;;4970412;28;20027;-65
2022/06/14 06:57:02;;;;;;;6.68;3.58;;;;;;;;;;4972081;28;20433;-67
2022/06/14 06:59:30;;;;;;;9.43;2.85;;;;;;;;;;4970821;28;20035;-68
2022/06/14 07:01:59;;;;;;;8.40;2.90;;;;;;;;;;4970140;28;20063;-67
2022/06/14 07:07:16;;;;;;;7.20;2.60;;;;;;;;;;4970316;28;20054;-68
2022/06/14 07:09:45;;;;;;;5.45;2.60;;;;;;;;;;4971305;28;20029;-68
2022/06/14 07:12:14;;;;;;;7.70;2.58;;;;;;;;;;4971501;28;20106;-65
2022/06/14 07:14:43;;;;;;;11.73;2.90;;;;;;;;;;4971481;28;20066;-72
2022/06/14 07:17:19;;;;;;;5.55;2.15;;;;;;;;;;4972126;28;20031;-70
2022/06/14 07:19:56;;;;;;;4.88;2.33;;;;;;;;;;4971947;28;20023;-65
2022/06/14 07:22:24;;;;;;;3.80;2.22;;;;;;;;;;4971903;28;20023;-67
2022/06/14 07:24:56;;;;;;;5.90;2.53;;;;;;;;;;4970564;28;20439;-65
2022/06/14 07:27:29;;;;;;;8.15;2.30;;;;;;;;;;4969255;28;20058;-65
2022/06/14 07:29:59;;;;;;;5.55;2.28;;;;;;;;;;4971704;28;20046;-61
2022/06/14 07:32:27;;;;;;;10.05;2.30;;;;;;;;;;4969576;28;20051;-65
2022/06/14 07:34:54;;;;;;;5.25;2.70;;;;;;;;;;4971049;28;20520;-61
2022/06/14 07:37:33;;;;;;;5.32;2.40;;;;;;;;;;4971191;28;20035;-63
2022/06/14 07:40:02;;;;;;;3.60;2.22;;;;;;;;;;4971787;28;20110;-66
2022/06/14 07:42:35;;;;;;;6.82;2.15;;;;;;;;;;4971855;28;20117;-64
2022/06/14 07:45:20;;;;;;;6.80;2.40;;;;;;;;;;4972189;28;20102;-63
2022/06/14 07:48:03;;;;;;;4.05;2.08;;;;;;;;;;4972198;28;20023;-62
2022/06/14 07:50:29;;;;;;;10.43;2.25;;;;;;;;;;4972363;28;20042;-63
2022/06/14 07:53:00;;;;;;;6.40;1.90;;;;;;;;;;4972098;28;20034;-62
2022/06/14 07:55:30;;;;;;;5.05;1.80;;;;;;;;;;4972136;28;20054;-62
2022/06/14 07:58:08;;;;;;;4.43;2.13;;;;;;;;;;4972185;28;20097;-62
2022/06/14 08:03:26;;;;;;;5.63;2.00;;;;;;;;;;4971765;28;20122;-62
2022/06/14 08:05:53;;;;;;;19.02;3.50;;;;;;;;;;4972123;28;20031;-62
2022/06/14 08:08:21;;;;;;;5.55;2.22;;;;;;;;;;4971853;28;20149;-63
2022/06/14 08:10:51;;;;;;;6.07;2.50;;;;;;;;;;4972294;28;20035;-62
2022/06/14 08:13:21;;;;;;;5.30;2.22;;;;;;;;;;4990816;28;20034;-62
2022/06/14 08:15:48;;;;;;;7.25;2.28;;;;;;;;;;4991470;28;20034;-62
2022/06/14 08:18:31;;;;;;;6.13;1.98;;;;;;;;;;4991048;28;20023;-63
2022/06/14 08:21:00;;;;;;;6.93;2.25;;;;;;;;;;4991415;28;20031;-62
2022/06/14 08:23:45;;;;;;;12.10;2.50;;;;;;;;;;4991348;28;20038;-62
2022/06/14 08:26:18;;;;;;;5.25;1.70;;;;;;;;;;4990851;28;20394;-63
2022/06/14 08:28:47;;;;;;;5.75;2.30;;;;;;;;;;4991179;28;20496;-62
2022/06/14 08:31:17;;;;;;;3.63;2.10;;;;;;;;;;4991144;28;20038;-63
2022/06/14 08:34:02;;;;;;;5.18;2.35;;;;;;;;;;4993082;28;20037;-65
2022/06/14 08:36:32;;;;;;;5.15;2.63;;;;;;;;;;4994850;28;20038;-62
2022/06/14 08:39:00;;;;;;;6.70;2.67;;;;;;;;;;4994380;28;20505;-64
2022/06/14 08:41:53;;;;;;;9.80;2.40;;;;;;;;;;4994988;28;20041;-63
2022/06/14 08:44:23;;;;;;;6.30;2.38;;;;;;;;;;4915383;29;20044;-62
2022/06/14 08:47:04;;;;;;;5.65;2.25;;;;;;;;;;4915282;29;20147;-62
2022/06/14 08:49:38;;;;;;;6.13;2.20;;;;;;;;;;4915171;29;20710;-62
2022/06/14 08:52:04;;;;;;;5.90;2.53;;;;;;;;;;4915339;29;20457;-62
2022/06/14 08:54:33;;;;;;;11.25;2.42;;;;;;;;;;4915134;28;20037;-63
2022/06/14 08:56:59;;;;;;;4.68;2.38;;;;;;;;;;4915355;29;20496;-65
2022/06/14 08:59:34;;;;;;;5.03;2.05;;;;;;;;;;4915139;29;20072;-64
2022/06/14 09:02:00;;;;;;;7.05;2.28;;;;;;;;;;4915390;29;20139;-65
2022/06/14 09:04:45;;;;;;;4.70;2.25;;;;;;;;;;4914712;29;20066;-63
2022/06/14 09:07:35;;;;;;;5.80;2.40;;;;;;;;;;4915100;29;20110;-64
2022/06/14 09:10:20;;;;;;;5.88;2.20;;;;;;;;;;4858576;29;20052;-63
2022/06/14 09:13:05;;;;;;;5.70;1.70;;;;;;;;;;4859266;29;20029;-63
2022/06/14 09:15:46;;;;;;;6.80;2.25;;;;;;;;;;4859066;29;20068;-69
2022/06/14 09:18:16;;;;;;;5.15;2.05;;;;;;;;;;4859119;29;20044;-63
2022/06/14 09:20:48;;;;;;;6.03;2.33;;;;;;;;;;4876800;29;20091;-62
2022/06/14 09:23:15;;;;;;;5.25;2.00;;;;;;;;;;4898283;29;20265;-62
2022/06/14 09:25:50;;;;;;;12.48;2.72;;;;;;;;;;4895812;29;20108;-64
2022/06/14 09:28:35;;;;;;;5.65;2.78;;;;;;;;;;4880034;29;20492;-69
2022/06/14 09:31:19;;;;;;;12.90;2.38;;;;;;;;;;4895809;29;20080;-67
2022/06/14 09:33:48;;;;;;;15.75;2.58;;;;;;;;;;4895545;29;20056;-68
2022/06/14 09:36:23;;;;;;;4.20;2.20;;;;;;;;;;4896011;29;20248;-63
2022/06/14 09:38:49;;;;;;;8.88;2.30;;;;;;;;;;4895356;29;20032;-68
2022/06/14 09:41:34;;;;;;;3.75;2.00;;;;;;;;;;4900467;29;20396;-67
2022/06/14 09:44:18;;;;;;;4.70;2.35;;;;;;;;;;4895511;29;20047;-62
2022/06/14 09:46:45;;;;;;;3.97;2.15;;;;;;;;;;4930833;28;20054;-63
2022/06/14 09:49:23;;;;;;;4.55;1.80;;;;;;;;;;4981964;28;20026;-61
2022/06/14 09:52:07;;;;;;;4.95;2.17;;;;;;;;;;4983749;28;20038;-67
2022/06/14 09:54:39;;;;;;;4.55;2.20;;;;;;;;;;4980070;28;20444;-62
2022/06/14 09:57:24;;;;;;;5.40;2.20;;;;;;;;;;4987340;28;20083;-62
2022/06/14 09:59:56;;;;;;;4.10;1.83;;;;;;;;;;4986280;28;20466;-61
2022/06/14 10:02:41;;;;;;;8.23;2.05;;;;;;;;;;4992714;28;20030;-62
2022/06/14 10:05:09;;;;;;;6.82;1.92;;;;;;;;;;4993356;28;20050;-68
2022/06/14 10:07:51;;;;;;;3.97;1.75;;;;;;;;;;4985381;28;20391;-63
2022/06/14 10:10:17;;;;;;;4.80;1.90;;;;;;;;;;4980802;28;20039;-67
2022/06/14 10:12:46;;;;;;;5.03;1.73;;;;;;;;;;4984682;28;20033;-61
2022/06/14 10:15:31;;;;;;;4.10;1.77;;;;;;;;;;4982749;28;20121;-62
2022/06/14 10:18:03;;;;;;;4.35;1.85;;;;;;;;;;4982527;28;20142;-61
2022/06/14 10:20:29;;;;;;;;;;;;;;;;;;4979319;28;20030;-62
2022/06/14 10:23:01;;;;;;;5.63;2.00;;;;;;;;;;4987450;28;19913;-62
2022/06/14 10:28:11;;;;;;;6.13;2.20;;;;;;;;;;4978647;28;20510;-61
2022/06/14 10:28:38;;;;;;;3.65;2.00;;;;;;;;;;4976660;28;20038;-61
2022/06/14 10:31:07;;;;;;;4.93;1.88;;;;;;;;;;4979800;28;20042;-63
2022/06/14 10:33:52;;;;;;;4.90;2.10;;;;;;;;;;4986784;28;20836;-62
2022/06/14 10:36:21;;;;;;;5.90;2.08;;;;;;;;;;4992637;28;20486;-69
2022/06/14 10:38:53;;;;;;;4.15;1.80;;;;;;;;;;4992301;28;20466;-62
2022/06/14 10:41:25;;;;;;;7.13;1.98;;;;;;;;;;4984426;28;20101;-65
2022/06/14 10:43:51;;;;;;;;;;;;;;;;;;4972062;28;20035;-69
2022/06/14 10:46:27;;;;;;;3.50;1.85;;;;;;;;;;4971862;28;20281;-62
2022/06/14 10:48:56;;;;;;;3.97;2.08;;;;;;;;;;4969655;28;20081;-65
2022/06/14 10:51:40;;;;;;;5.78;1.90;;;;;;;;;;4971251;28;20039;-69
2022/06/14 10:54:07;;;;;;;7.10;1.85;;;;;;;;;;4967619;28;20034;-62
2022/06/14 10:56:52;;;;;;;4.55;2.17;;;;;;;;;;4971494;28;20021;-61
2022/06/14 10:59:26;;;;;;;3.78;1.90;;;;;;;;;;4969622;28;20069;-69
2022/06/14 11:01:52;;;;;;;6.90;2.03;;;;;;;;;;4965940;28;20027;-62
2022/06/14 11:04:22;;;;;;;4.38;1.77;;;;;;;;;;4970953;28;20073;-70
2022/06/14 11:06:48;;;;;;;3.40;1.73;;;;;;;;;;4971353;28;20106;-67
2022/06/14 11:09:23;;;;;;;6.70;2.05;;;;;;;;;;4971301;28;20071;-69
2022/06/14 11:12:00;;;;;;;4.15;2.00;;;;;;;;;;4971409;28;20037;-67
2022/06/14 11:14:49;;;;;;;4.35;1.50;;;;;;;;;;4971287;28;20367;-63
2022/06/14 11:17:24;;;;;;;4.80;1.90;;;;;;;;;;4971312;28;20037;-63
2022/06/14 11:20:01;;;;;;;3.45;1.90;;;;;;;;;;4971124;28;20037;-63
2022/06/14 11:22:42;;;;;;;1.85;1.38;;;;;;;;;;4972707;28;20578;-70
2022/06/14 11:25:17;;;;;;;3.50;1.60;;;;;;;;;;4972393;28;20065;-65
2022/06/14 11:28:07;;;;;;;2.88;1.52;;;;;;;;;;4972223;28;20062;-62
2022/06/14 11:30:55;;;;;;;4.18;1.40;;;;;;;;;;4971348;28;20505;-62
2022/06/14 11:33:21;;;;;;;2.53;1.30;;;;;;;;;;4972264;28;20026;-65
2022/06/14 11:35:50;;;;;;;5.85;2.15;;;;;;;;;;4971770;28;20147;-63
2022/06/14 11:38:16;;;;;;;4.95;1.70;;;;;;;;;;4971182;28;20018;-64
2022/06/14 11:40:47;;;;;;;5.88;2.03;;;;;;;;;;4972267;28;20383;-70
2022/06/14 11:43:28;;;;;;;4.20;2.00;;;;;;;;;;4971410;28;20483;-65
2022/06/14 11:46:15;;;;;;;2.93;1.67;;;;;;;;;;4970544;28;20034;-70
2022/06/14 11:48:48;;;;;;;4.15;1.52;;;;;;;;;;4970159;28;20632;-71
2022/06/14 11:51:22;;;;;;;2.45;1.40;;;;;;;;;;4972045;28;20057;-71
2022/06/14 11:53:58;;;;;;;3.30;1.70;;;;;;;;;;4971983;28;20470;-66
2022/06/14 11:56:42;;;;;;;2.50;1.70;;;;;;;;;;4971655;28;20483;-63
2022/06/14 11:59:27;;;;;;;5.13;1.77;;;;;;;;;;4968535;28;20449;-69
2022/06/14 12:01:56;;;;;;;4.95;1.42;;;;;;;;;;4969087;28;20090;-62
2022/06/14 12:04:23;;;;;;;5.05;1.42;;;;;;;;;;4968162;28;20042;-65
2022/06/14 12:06:50;;;;;;;5.07;1.17;;;;;;;;;;4972245;28;20561;-65
2022/06/14 12:09:16;;;;;;;6.10;1.25;;;;;;;;;;4958594;28;20038;-65
2022/06/14 12:11:50;;;;;;;5.43;1.33;;;;;;;;;;4975651;28;20121;-67
2022/06/14 12:14:34;;;;;;;3.50;1.20;;;;;;;;;;4976082;28;20556;-69
2022/06/14 12:17:20;;;;;;;3.05;1.20;;;;;;;;;;4975790;28;20019;-62
2022/06/14 12:19:53;;;;;;;6.93;1.55;;;;;;;;;;4975768;28;20030;-63
2022/06/14 12:22:26;;;;;;;1.73;1.30;;;;;;;;;;4976059;28;20023;-63
2022/06/14 12:27:44;;;;;;;3.97;1.48;;;;;;;;;;4975922;28;20120;-63
2022/06/14 12:30:12;;;;;;;3.00;1.50;;;;;;;;;;4958072;28;20037;-70
2022/06/14 12:32:50;;;;;;;6.45;1.38;;;;;;;;;;4975249;28;20046;-66
2022/06/14 12:35:21;;;;;;;2.65;1.30;;;;;;;;;;4975065;28;20483;-70
2022/06/14 12:37:54;;;;;;;6.07;1.75;;;;;;;;;;4975159;28;20073;-69
2022/06/14 12:40:49;;;;;;;6.35;1.67;;;;;;;;;;4975271;28;20035;-66
2022/06/14 12:43:23;;;;;;;2.92;1.20;;;;;;;;;;4878116;29;20063;-69
2022/06/14 12:45:55;;;;;;;2.92;1.38;;;;;;;;;;4877905;29;20116;-67
2022/06/14 12:48:30;;;;;;;2.13;1.10;;;;;;;;;;4878191;29;20493;-62
2022/06/14 12:51:16;;;;;;;3.28;1.65;;;;;;;;;;4877671;29;20049;-66
2022/06/14 12:53:48;;;;;;;3.85;1.58;;;;;;;;;;4822304;29;20050;-67
2022/06/14 12:56:32;;;;;;;2.38;1.25;;;;;;;;;;4822458;29;20233;-67
2022/06/14 12:59:03;;;;;;;3.17;1.50;;;;;;;;;;4822182;29;20495;-62
2022/06/14 13:01:29;;;;;;;1.92;1.40;;;;;;;;;;4821648;29;20408;-62
2022/06/14 13:04:00;;;;;;;3.05;1.45;;;;;;;;;;4821593;29;20157;-63
2022/06/14 13:06:32;;;;;;;8.80;1.80;;;;;;;;;;4821826;29;20046;-69
2022/06/14 13:09:06;;;;;;;4.55;1.58;;;;;;;;;;4822057;29;20103;-70
2022/06/14 13:11:38;;;;;;;5.65;1.60;;;;;;;;;;4821882;29;20122;-70
2022/06/14 13:14:11;;;;;;;4.80;1.50;;;;;;;;;;4821689;29;20038;-62
2022/06/14 13:16:46;;;;;;;4.05;1.60;;;;;;;;;;4821666;29;20156;-67
2022/06/14 13:19:25;;;;;;;2.40;1.40;;;;;;;;;;4833117;29;20108;-71
2022/06/14 13:22:03;;;;;;;3.22;1.70;;;;;;;;;;4858261;29;20120;-63
2022/06/14 13:24:36;;;;;;;4.20;1.58;;;;;;;;;;4858023;29;20080;-69
2022/06/14 13:27:22;;;;;;;6.15;1.73;;;;;;;;;;4858381;29;20029;-62
2022/06/14 13:30:07;;;;;;;5.57;1.60;;;;;;;;;;4867523;28;20033;-62
2022/06/14 13:32:52;;;;;;;3.83;1.58;;;;;;;;;;4974005;28;20411;-62
2022/06/14 13:35:39;;;;;;;6.65;1.80;;;;;;;;;;4974428;28;20073;-69
2022/06/14 13:38:14;;;;;;;4.35;1.50;;;;;;;;;;4974248;28;20037;-62
2022/06/14 13:40:48;;;;;;;5.07;1.95;;;;;;;;;;4974124;28;20050;-65
2022/06/14 13:43:29;;;;;;;2.72;1.65;;;;;;;;;;4973789;28;20073;-63
2022/06/14 13:45:59;;;;;;;5.93;1.60;;;;;;;;;;4974112;28;20050;-68
2022/06/14 13:48:25;;;;;;;6.43;1.80;;;;;;;;;;4973816;28;20061;-62
2022/06/14 13:51:10;;;;;;;3.75;1.40;;;;;;;;;;4973901;28;20085;-62
2022/06/14 13:53:40;;;;;;;3.50;1.65;;;;;;;;;;4974134;28;20038;-62
2022/06/14 13:56:19;;;;;;;3.25;1.48;;;;;;;;;;4973687;28;20027;-66
2022/06/14 13:58:54;;;;;;;3.78;1.48;;;;;;;;;;4973440;28;20077;-62
2022/06/14 14:01:20;;;;;;;4.85;1.70;;;;;;;;;;4973652;28;20019;-69
2022/06/14 14:03:51;;;;;;;2.97;1.55;;;;;;;;;;4973548;28;20069;-62
2022/06/14 14:06:20;;;;;;;4.00;1.60;;;;;;;;;;4973907;28;20058;-65
2022/06/14 14:09:01;;;;;;;7.63;1.75;;;;;;;;;;4973624;28;20031;-63
2022/06/14 14:11:33;;;;;;;4.50;1.52;;;;;;;;;;4973544;28;20081;-63
2022/06/14 14:14:22;;;;;;;4.32;1.90;;;;;;;;;;4973279;28;20031;-69
2022/06/14 14:16:52;;;;;;;3.45;1.80;;;;;;;;;;4973554;28;20034;-68
2022/06/14 14:19:18;;;;;;;4.07;1.83;;;;;;;;;;4973508;28;20034;-65
2022/06/14 14:21:50;;;;;;;5.22;1.83;;;;;;;;;;4973139;28;20041;-67
2022/06/14 14:24:31;;;;;;;5.13;1.90;;;;;;;;;;4973588;28;20052;-66
2022/06/14 14:26:58;;;;;;;3.47;1.77;;;;;;;;;;4973313;28;20106;-62
2022/06/14 14:29:29;;;;;;;3.10;1.75;;;;;;;;;;4973368;28;20479;-61
2022/06/14 14:31:59;;;;;;;4.13;1.90;;;;;;;;;;4972542;28;20049;-62
2022/06/14 14:34:33;;;;;;;2.25;1.50;;;;;;;;;;4973043;28;20482;-65
2022/06/14 14:37:08;;;;;;;6.57;1.77;;;;;;;;;;4972867;28;20045;-68
2022/06/14 14:39:37;;;;;;;9.45;2.10;;;;;;;;;;4973131;28;20404;-69
2022/06/14 14:42:09;;;;;;;5.00;1.85;;;;;;;;;;4973097;28;20031;-62
2022/06/14 14:44:40;;;;;;;4.22;1.88;;;;;;;;;;4973056;28;20023;-68
2022/06/14 14:47:06;;;;;;;4.72;2.00;;;;;;;;;;4972947;28;20034;-65
2022/06/14 14:49:44;;;;;;;5.53;1.65;;;;;;;;;;4973103;28;20031;-67
2022/06/14 14:52:13;;;;;;;8.40;1.95;;;;;;;;;;4972498;28;20035;-64
2022/06/14 14:54:45;;;;;;;4.80;1.45;;;;;;;;;;4972697;28;20037;-67
2022/06/14 14:57:11;;;;;;;;;;;;;;;;;;4972658;28;20066;-66
2022/06/14 14:59:43;;;;;;;6.35;1.90;;;;;;;;;;4972484;28;19981;-62
2022/06/14 15:05:24;;;;;;;5.43;1.90;;;;;;;;;;4970387;28;20109;-62
2022/06/14 15:07:53;;;;;;;5.05;2.00;;;;;;;;;;4967387;28;20038;-63
2022/06/14 15:10:22;;;;;;;3.83;1.40;;;;;;;;;;4971946;28;20039;-65
2022/06/14 15:12:48;;;;;;;7.20;2.22;;;;;;;;;;4953863;28;20034;-61
2022/06/14 15:15:17;;;;;;;9.30;2.53;;;;;;;;;;4986865;28;20033;-62
2022/06/14 15:20:48;;;;;;;7.90;2.35;;;;;;;;;;4976024;28;20041;-64
2022/06/14 15:23:26;;;;;;;6.68;2.13;;;;;;;;;;4972141;28;20058;-63
2022/06/14 15:25:52;;;;;;;6.72;1.90;;;;;;;;;;4987621;28;20037;-65
2022/06/14 15:28:19;;;;;;;5.47;2.00;;;;;;;;;;4978154;28;20026;-65
2022/06/14 15:30:47;;;;;;;3.58;1.77;;;;;;;;;;4981606;28;20067;-66
2022/06/14 15:33:13;;;;;;;6.05;1.75;;;;;;;;;;4985585;28;20828;-68
2022/06/14 15:35:48;;;;;;;7.55;2.33;;;;;;;;;;4974868;28;20038;-65
2022/06/14 15:38:30;;;;;;;4.07;1.35;;;;;;;;;;4985463;28;20019;-67
2022/06/14 15:41:03;;;;;;;3.38;1.73;;;;;;;;;;4982981;28;20034;-63
2022/06/14 15:43:32;;;;;;;;;;;;;;;;;;4975345;28;20037;-62
2022/06/14 15:45:59;;;;;;;4.13;2.08;;;;;;;;;;4955876;28;19942;-61
2022/06/14 15:48:33;;;;;;;3.28;1.50;;;;;;;;;;4978576;28;20069;-65
2022/06/14 15:51:05;;;;;;;3.03;1.67;;;;;;;;;;4979259;28;20077;-64
2022/06/14 15:53:43;;;;;;;6.80;1.60;;;;;;;;;;4971760;28;20577;-63
2022/06/14 15:56:28;;;;;;;4.78;1.73;;;;;;;;;;4971552;28;20038;-63
2022/06/14 15:58:56;;;;;;;5.60;1.70;;;;;;;;;;4971096;28;20034;-62
2022/06/14 16:01:23;;;;;;;4.22;1.73;;;;;;;;;;4970985;28;20138;-63
2022/06/14 16:04:10;;;;;;;4.82;1.80;;;;;;;;;;4970678;28;20061;-60
2022/06/14 16:06:40;;;;;;;2.75;1.60;;;;;;;;;;4970098;28;20433;-63
2022/06/14 16:09:13;;;;;;;6.10;1.90;;;;;;;;;;4971034;28;20113;-59
2022/06/14 16:11:39;;;;;;;;;;;;;;;;;;4971549;28;20039;-62
2022/06/14 16:14:06;;;;;;;4.03;1.58;;;;;;;;;;4988421;28;20278;-61
2022/06/14 16:16:40;;;;;;;5.60;1.67;;;;;;;;;;4993728;28;20456;-65
2022/06/14 16:19:27;;;;;;;3.72;1.60;;;;;;;;;;4991676;28;20385;-60
2022/06/14 16:21:55;;;;;;;5.47;1.80;;;;;;;;;;4991110;28;20062;-60
2022/06/14 16:24:22;;;;;;;4.53;1.80;;;;;;;;;;4991140;28;20050;-60
2022/06/14 16:26:53;;;;;;;6.75;1.63;;;;;;;;;;4991036;28;20098;-59
2022/06/14 16:29:19;;;;;;;3.15;1.75;;;;;;;;;;4978549;28;20030;-62
2022/06/14 16:31:48;;;;;;;4.80;1.80;;;;;;;;;;4971753;28;20130;-63
2022/06/14 16:34:20;;;;;;;5.78;1.92;;;;;;;;;;4958672;28;20030;-62
2022/06/14 16:36:52;;;;;;;4.22;1.95;;;;;;;;;;4990785;28;20038;-60
2022/06/14 16:39:18;;;;;;;;;;;;;;;;;;4991357;28;20194;-61
2022/06/14 16:41:52;;;;;;;4.35;2.13;;;;;;;;;;4990837;28;20008;-65
2022/06/14 16:44:36;;;;;;;10.23;2.17;;;;;;;;;;4990910;28;20027;-60
2022/06/14 16:47:02;;;;;;;3.65;2.10;;;;;;;;;;4990668;28;20030;-64
2022/06/14 16:49:34;;;;;;;5.30;2.10;;;;;;;;;;4990913;28;20069;-64
2022/06/14 16:52:05;;;;;;;4.70;1.67;;;;;;;;;;4990666;28;20030;-63
2022/06/14 16:54:36;;;;;;;4.45;1.92;;;;;;;;;;4992121;28;20026;-62
2022/06/14 16:57:22;;;;;;;4.28;1.80;;;;;;;;;;4994296;28;20030;-65
2022/06/14 16:59:51;;;;;;;4.53;1.73;;;;;;;;;;4994169;28;20034;-63
2022/06/14 17:02:29;;;;;;;6.75;1.90;;;;;;;;;;4993850;28;20018;-64
2022/06/14 17:04:58;;;;;;;4.57;1.90;;;;;;;;;;4994011;28;20054;-64
2022/06/14 17:07:35;;;;;;;5.53;2.05;;;;;;;;;;4993825;28;20050;-65
2022/06/14 17:10:10;;;;;;;4.40;1.65;;;;;;;;;;4993937;28;20106;-65
2022/06/14 17:12:56;;;;;;;3.35;1.80;;;;;;;;;;4993764;28;20438;-61
2022/06/14 17:15:23;;;;;;;7.78;2.03;;;;;;;;;;4914588;29;20040;-61
2022/06/14 17:17:55;;;;;;;4.00;1.90;;;;;;;;;;4914797;29;20402;-63
2022/06/14 17:20:21;;;;;;;5.03;1.80;;;;;;;;;;4914842;29;20232;-64
2022/06/14 17:22:52;;;;;;;5.88;1.80;;;;;;;;;;4914427;29;20103;-62
2022/06/14 17:31:11;;;;;;;4.25;2.10;;;;;;;;;;4914130;29;20539;-61
2022/06/14 17:33:40;;;;;;;2.80;1.75;;;;;;;;;;4913988;29;20081;-63
2022/06/14 17:36:24;;;;;;;6.55;2.00;;;;;;;;;;4913915;29;20044;-62
2022/06/14 17:38:53;;;;;;;4.78;1.70;;;;;;;;;;4913347;29;20495;-61
2022/06/14 17:41:21;;;;;;;5.55;1.90;;;;;;;;;;4913549;29;20036;-61
2022/06/14 17:43:52;;;;;;;4.70;1.95;;;;;;;;;;4912586;29;20028;-62
2022/06/14 17:46:19;;;;;;;6.93;1.85;;;;;;;;;;4914015;29;20055;-62
2022/06/14 17:48:55;;;;;;;4.75;1.73;;;;;;;;;;4914645;29;20035;-62
2022/06/14 17:51:27;;;;;;;8.20;2.28;;;;;;;;;;4916557;28;20044;-62
2022/06/14 17:53:56;;;;;;;3.95;1.90;;;;;;;;;;4993211;28;20076;-60
2022/06/14 17:56:33;;;;;;;5.05;2.03;;;;;;;;;;4993290;28;20026;-63
2022/06/14 17:58:59;;;;;;;5.15;1.80;;;;;;;;;;4993350;28;20057;-61
2022/06/14 18:01:25;;;;;;;4.22;2.10;;;;;;;;;;4993133;28;20113;-62
2022/06/14 18:04:12;;;;;;;7.32;2.40;;;;;;;;;;4992733;28;20134;-63
2022/06/14 18:06:50;;;;;;;3.38;1.98;;;;;;;;;;4992876;28;20034;-61
2022/06/14 18:09:17;;;;;;;4.40;2.50;;;;;;;;;;4992921;28;20032;-62
2022/06/14 18:11:51;;;;;;;6.97;2.40;;;;;;;;;;4992547;28;20030;-62
2022/06/14 18:14:29;;;;;;;6.72;2.60;;;;;;;;;;4992962;28;20045;-62
2022/06/14 18:16:57;;;;;;;9.65;2.42;;;;;;;;;;4993033;28;20089;-61
2022/06/14 18:22:30;;;;;;;6.60;2.03;;;;;;;;;;4991989;28;20130;-62
2022/06/14 18:24:57;;;;;;;4.72;2.40;;;;;;;;;;4992112;28;20027;-62
2022/06/14 18:27:25;;;;;;;4.90;2.35;;;;;;;;;;4992670;28;20030;-62
2022/06/14 18:29:53;;;;;;;7.20;2.63;;;;;;;;;;4992530;28;20054;-60
2022/06/14 18:32:24;;;;;;;4.65;2.20;;;;;;;;;;4990572;28;20041;-63
2022/06/14 18:34:50;;;;;;;3.92;2.15;;;;;;;;;;4990347;28;20035;-61
2022/06/14 18:37:23;;;;;;;7.93;3.20;;;;;;;;;;4974113;28;20081;-61
2022/06/14 18:39:52;;;;;;;5.57;2.90;;;;;;;;;;4970702;28;20035;-62
2022/06/14 18:42:36;;;;;;;6.13;3.15;;;;;;;;;;4972664;28;20031;-61
2022/06/14 18:45:11;;;;;;;6.55;2.42;;;;;;;;;;4953499;29;20023;-62
2022/06/14 18:47:38;;;;;;;6.50;2.90;;;;;;;;;;4969934;28;20027;-61
2022/06/14 18:50:19;;;;;;;13.35;3.00;;;;;;;;;;4971753;28;20110;-62
2022/06/14 18:53:09;;;;;;;6.68;3.83;;;;;;;;;;4972446;28;20054;-62
2022/06/14 18:55:38;;;;;;;10.23;2.83;;;;;;;;;;4911521;29;20091;-65
2022/06/14 18:58:18;;;;;;;13.35;3.13;;;;;;;;;;4912476;29;20873;-61
2022/06/14 19:00:46;;;;;;;6.82;2.80;;;;;;;;;;4912345;29;20036;-64
2022/06/14 19:03:15;;;;;;;6.00;3.10;;;;;;;;;;4911909;29;20029;-61
2022/06/14 19:05:45;;;;;;;4.63;2.53;;;;;;;;;;4912569;29;20118;-61
2022/06/14 19:08:37;;;;;;;5.32;3.00;;;;;;;;;;4911805;29;20051;-65
2022/06/14 19:11:19;;;;;;;5.28;2.65;;;;;;;;;;4874149;29;20136;-61
2022/06/14 19:13:57;;;;;;;6.03;2.90;;;;;;;;;;4874788;29;20628;-62
2022/06/14 19:16:23;;;;;;;5.35;2.38;;;;;;;;;;4874092;29;20128;-61
2022/06/14 19:18:49;;;;;;;6.28;2.83;;;;;;;;;;4872225;29;20025;-63
2022/06/14 19:21:29;;;;;;;10.30;2.90;;;;;;;;;;4874799;29;20128;-61
2022/06/14 19:23:57;;;;;;;6.70;2.58;;;;;;;;;;4873068;29;20473;-64
2022/06/14 19:26:36;;;;;;;8.80;2.40;;;;;;;;;;4873346;29;20112;-62
2022/06/14 19:29:14;;;;;;;9.88;2.92;;;;;;;;;;4874624;29;20041;-62
2022/06/14 19:31:47;;;;;;;5.70;2.50;;;;;;;;;;4879506;29;20195;-62
2022/06/14 19:34:16;;;;;;;7.93;2.30;;;;;;;;;;4929023;29;20039;-63
2022/06/14 19:36:52;;;;;;;5.22;2.17;;;;;;;;;;4931052;29;20027;-62
2022/06/14 19:39:19;;;;;;;6.65;2.25;;;;;;;;;;4929273;29;20347;-62
2022/06/14 19:42:08;;;;;;;7.85;2.50;;;;;;;;;;4930625;29;20036;-62
2022/06/14 19:44:34;;;;;;;5.25;2.50;;;;;;;;;;4928625;29;20038;-62
2022/06/14 19:47:03;;;;;;;5.63;2.28;;;;;;;;;;4935998;28;20149;-62
2022/06/14 19:52:18;;;;;;;7.95;2.63;;;;;;;;;;4967852;28;20066;-62
2022/06/14 19:55:28;;;;;;;6.15;2.33;;;;;;;;;;4970002;28;20019;-62
2022/06/14 19:57:37;;;;;;;7.88;3.13;;;;;;;;;;4968953;28;20478;-61
2022/06/14 20:00:04;;;;;;;6.10;2.17;;;;;;;;;;4970367;28;20027;-61
2022/06/14 20:02:37;;;;;;;6.93;2.70;;;;;;;;;;4968229;28;20476;-61
2022/06/14 20:05:04;;;;;;;14.38;2.78;;;;;;;;;;4971344;28;20062;-61
2022/06/14 20:07:43;;;;;;;4.95;2.40;;;;;;;;;;4971054;28;20031;-62
2022/06/14 20:10:10;;;;;;;7.93;2.58;;;;;;;;;;4971896;28;20492;-63
2022/06/14 20:12:39;;;;;;;9.13;2.08;;;;;;;;;;4971921;28;20027;-62
2022/06/14 20:15:14;;;;;;;8.48;2.10;;;;;;;;;;4971251;28;20035;-61
2022/06/14 20:17:48;;;;;;;5.07;2.28;;;;;;;;;;4953896;28;20050;-64
2022/06/14 20:20:14;;;;;;;6.22;2.72;;;;;;;;;;4972134;28;20078;-62
2022/06/14 20:22:42;;;;;;;7.75;2.97;;;;;;;;;;4971856;28;20117;-60
2022/06/14 20:25:12;;;;;;;5.75;2.45;;;;;;;;;;4971630;28;20098;-68
2022/06/14 20:27:54;;;;;;;6.07;2.70;;;;;;;;;;4971898;28;20038;-62
2022/06/14 20:30:22;;;;;;;7.03;2.63;;;;;;;;;;4974479;28;20031;-62
2022/06/14 20:32:48;;;;;;;9.82;2.72;;;;;;;;;;4975519;28;20049;-62
2022/06/14 20:35:15;;;;;;;10.20;2.63;;;;;;;;;;4975789;28;20042;-62
2022/06/14 20:37:55;;;;;;;8.88;2.80;;;;;;;;;;4975652;28;20026;-62
2022/06/14 20:40:22;;;;;;;9.52;2.50;;;;;;;;;;4985829;28;20030;-62
2022/06/14 20:42:50;;;;;;;7.82;2.40;;;;;;;;;;4974927;28;20031;-65
2022/06/14 20:45:21;;;;;;;7.95;2.70;;;;;;;;;;4974212;28;20517;-62
2022/06/14 20:47:47;;;;;;;8.98;2.78;;;;;;;;;;4974024;28;20057;-62
2022/06/14 20:50:15;;;;;;;9.05;2.70;;;;;;;;;;4974598;28;20026;-62